LPA3412 LTAC-UGTB
Flight info
| Callsign | LPA3412 |
|---|---|
| Flight time | 2h 10m |
| Altitude | 37000 |
| Route | GOBIT UL614 JUPNE UT54 SIV DCT GONPU UN61 NOLGA N61 LAGAS |
| Aircraft | A320/M-SDE3FGHIRWY/LB1 |
Departure
| Time | 2026-04-28 20:31 |
|---|---|
| Airport | Esenboğa International Airport (LTAC) |
Arrival
| Time | 2026-04-28 22:42 |
|---|---|
| Airport | Tbilisi International Airport (UGTB) |
| Time | Latitude | Longitude | Altitude | Speed | Heading |
|---|---|---|---|---|---|
| 2026-04-28 20:04 | 40.11713 | 32.99561 | 3113 ft | 0 kts | 177° |
| 2026-04-28 20:05 | 40.11712 | 32.99537 | 3114 ft | 0 kts | 177° |
| 2026-04-28 20:05 | 40.11705 | 32.99497 | 3113 ft | 0 kts | 177° |
| 2026-04-28 20:07 | 40.11701 | 32.99499 | 3113 ft | 0 kts | 173° |
| 2026-04-28 20:18 | 40.11706 | 32.99498 | 3113 ft | 2 kts | 172° |
| 2026-04-28 20:18 | 40.11723 | 32.99496 | 3113 ft | 2 kts | 175° |
| 2026-04-28 20:19 | 40.11739 | 32.99494 | 3113 ft | 2 kts | 178° |
| 2026-04-28 20:19 | 40.11755 | 32.99494 | 3113 ft | 2 kts | 184° |
| 2026-04-28 20:19 | 40.11772 | 32.99496 | 3113 ft | 2 kts | 209° |
| 2026-04-28 20:19 | 40.11782 | 32.99511 | 3113 ft | 2 kts | 263° |
| 2026-04-28 20:20 | 40.11782 | 32.99513 | 3113 ft | 0 kts | 264° |
| 2026-04-28 20:22 | 40.11774 | 32.99451 | 3113 ft | 9 kts | 260° |
| 2026-04-28 20:23 | 40.11763 | 32.99380 | 3113 ft | 9 kts | 256° |
| 2026-04-28 20:23 | 40.11741 | 32.99282 | 3113 ft | 11 kts | 250° |
| 2026-04-28 20:23 | 40.11715 | 32.99199 | 3113 ft | 11 kts | 245° |
| 2026-04-28 20:23 | 40.11660 | 32.99074 | 3113 ft | 21 kts | 235° |
| 2026-04-28 20:24 | 40.11566 | 32.98922 | 3113 ft | 23 kts | 226° |
| 2026-04-28 20:24 | 40.11454 | 32.98805 | 3113 ft | 25 kts | 218° |
| 2026-04-28 20:24 | 40.11355 | 32.98708 | 3112 ft | 10 kts | 216° |
| 2026-04-28 20:24 | 40.11292 | 32.98649 | 3110 ft | 10 kts | 216° |
| 2026-04-28 20:25 | 40.11273 | 32.98625 | 3110 ft | 2 kts | 234° |
| 2026-04-28 20:25 | 40.11269 | 32.98609 | 3110 ft | 1 kts | 262° |
| 2026-04-28 20:25 | 40.11274 | 32.98581 | 3110 ft | 9 kts | 288° |
| 2026-04-28 20:25 | 40.11309 | 32.98514 | 3109 ft | 8 kts | 306° |
| 2026-04-28 20:26 | 40.11342 | 32.98456 | 3109 ft | 7 kts | 307° |
| 2026-04-28 20:26 | 40.11364 | 32.98417 | 3109 ft | 0 kts | 307° |
| 2026-04-28 20:27 | 40.11366 | 32.98414 | 3109 ft | 3 kts | 307° |
| 2026-04-28 20:27 | 40.11400 | 32.98353 | 3109 ft | 9 kts | 306° |
| 2026-04-28 20:28 | 40.11433 | 32.98294 | 3109 ft | 7 kts | 306° |
| 2026-04-28 20:28 | 40.11458 | 32.98249 | 3109 ft | 5 kts | 305° |
| 2026-04-28 20:28 | 40.11473 | 32.98224 | 3109 ft | 0 kts | 306° |
| 2026-04-28 20:29 | 40.11487 | 32.98200 | 3109 ft | 10 kts | 310° |
| 2026-04-28 20:29 | 40.11556 | 32.98166 | 3109 ft | 10 kts | 5° |
| 2026-04-28 20:30 | 40.11574 | 32.98173 | 3109 ft | 2 kts | 22° |
| 2026-04-28 20:30 | 40.11589 | 32.98185 | 3110 ft | 0 kts | 34° |
| 2026-04-28 20:31 | 40.11600 | 32.98196 | 3110 ft | 9 kts | 35° |
| 2026-04-28 20:31 | 40.11843 | 32.98427 | 3112 ft | 86 kts | 36° |
| 2026-04-28 20:31 | 40.12542 | 32.99092 | 3119 ft | 159 kts | 36° |
| 2026-04-28 20:31 | 40.13484 | 32.99987 | 3739 ft | 170 kts | 36° |
| 2026-04-28 20:32 | 40.14431 | 33.00972 | 4605 ft | 177 kts | 40° |
| 2026-04-28 20:32 | 40.15388 | 33.02039 | 5195 ft | 189 kts | 40° |
| 2026-04-28 20:32 | 40.16470 | 33.03209 | 5428 ft | 214 kts | 39° |
| 2026-04-28 20:32 | 40.17697 | 33.04495 | 5772 ft | 238 kts | 38° |
| 2026-04-28 20:33 | 40.19029 | 33.05879 | 6389 ft | 249 kts | 38° |
| 2026-04-28 20:33 | 40.20353 | 33.07373 | 7177 ft | 255 kts | 51° |
| 2026-04-28 20:33 | 40.21027 | 33.09503 | 7927 ft | 261 kts | 85° |
| 2026-04-28 20:33 | 40.20682 | 33.11915 | 8367 ft | 282 kts | 115° |
| 2026-04-28 20:34 | 40.19631 | 33.14087 | 9068 ft | 290 kts | 128° |
| 2026-04-28 20:34 | 40.18310 | 33.16109 | 9868 ft | 295 kts | 132° |
| 2026-04-28 20:34 | 40.16883 | 33.18131 | 10376 ft | 312 kts | 133° |
| 2026-04-28 20:34 | 40.15364 | 33.20313 | 10637 ft | 336 kts | 132° |
| 2026-04-28 20:35 | 40.13774 | 33.22694 | 10852 ft | 359 kts | 131° |
| 2026-04-28 20:35 | 40.12136 | 33.25263 | 11229 ft | 374 kts | 130° |
| 2026-04-28 20:35 | 40.10494 | 33.27934 | 11866 ft | 379 kts | 129° |
| 2026-04-28 20:35 | 40.08852 | 33.30662 | 12530 ft | 383 kts | 129° |
| 2026-04-28 20:36 | 40.07202 | 33.33427 | 13177 ft | 388 kts | 129° |
| 2026-04-28 20:36 | 40.05537 | 33.36217 | 13838 ft | 391 kts | 129° |
| 2026-04-28 20:36 | 40.03880 | 33.38983 | 14425 ft | 394 kts | 129° |
| 2026-04-28 20:36 | 40.02176 | 33.41819 | 15053 ft | 398 kts | 129° |
| 2026-04-28 20:37 | 40.00493 | 33.44706 | 15663 ft | 402 kts | 127° |
| 2026-04-28 20:37 | 39.98872 | 33.47705 | 16270 ft | 406 kts | 125° |
| 2026-04-28 20:37 | 39.97295 | 33.50772 | 16871 ft | 409 kts | 124° |
| 2026-04-28 20:37 | 39.95727 | 33.53888 | 17458 ft | 412 kts | 124° |
| 2026-04-28 20:38 | 39.94148 | 33.57029 | 18024 ft | 415 kts | 124° |
| 2026-04-28 20:38 | 39.92547 | 33.60181 | 18568 ft | 419 kts | 124° |
| 2026-04-28 20:38 | 39.90915 | 33.63351 | 19064 ft | 422 kts | 124° |
| 2026-04-28 20:38 | 39.89257 | 33.66527 | 19574 ft | 426 kts | 125° |
| 2026-04-28 20:39 | 39.87576 | 33.69723 | 20062 ft | 429 kts | 125° |
| 2026-04-28 20:39 | 39.85881 | 33.72939 | 20542 ft | 432 kts | 125° |
| 2026-04-28 20:39 | 39.84173 | 33.76182 | 20991 ft | 436 kts | 125° |
| 2026-04-28 20:39 | 39.82482 | 33.79400 | 21426 ft | 438 kts | 125° |
| 2026-04-28 20:40 | 39.80754 | 33.82689 | 21857 ft | 441 kts | 125° |
| 2026-04-28 20:40 | 39.79058 | 33.85923 | 22923 ft | 424 kts | 125° |
| 2026-04-28 20:40 | 39.77607 | 33.89156 | 24172 ft | 405 kts | 117° |
| 2026-04-28 20:40 | 39.76556 | 33.92458 | 25398 ft | 386 kts | 111° |
| 2026-04-28 20:41 | 39.75668 | 33.95653 | 26601 ft | 365 kts | 111° |
| 2026-04-28 20:41 | 39.74807 | 33.98712 | 27308 ft | 361 kts | 112° |
| 2026-04-28 20:41 | 39.73943 | 34.01751 | 27761 ft | 361 kts | 112° |
| 2026-04-28 20:41 | 39.73056 | 34.04853 | 27883 ft | 372 kts | 112° |
| 2026-04-28 20:42 | 39.72139 | 34.08048 | 28020 ft | 383 kts | 112° |
| 2026-04-28 20:42 | 39.71194 | 34.11339 | 28139 ft | 394 kts | 112° |
| 2026-04-28 20:42 | 39.70226 | 34.14727 | 28278 ft | 405 kts | 112° |
| 2026-04-28 20:42 | 39.69238 | 34.18203 | 28400 ft | 415 kts | 112° |
| 2026-04-28 20:43 | 39.68227 | 34.21760 | 28524 ft | 425 kts | 112° |
| 2026-04-28 20:43 | 39.67197 | 34.25374 | 28995 ft | 420 kts | 112° |
| 2026-04-28 20:43 | 39.66209 | 34.28847 | 30154 ft | 400 kts | 112° |
| 2026-04-28 20:43 | 39.65250 | 34.32210 | 30701 ft | 400 kts | 112° |
| 2026-04-28 20:44 | 39.64303 | 34.35647 | 30827 ft | 410 kts | 108° |
| 2026-04-28 20:44 | 39.63637 | 34.39240 | 30954 ft | 420 kts | 101° |
| 2026-04-28 20:44 | 39.63328 | 34.43045 | 31083 ft | 429 kts | 92° |
| 2026-04-28 20:44 | 39.63422 | 34.46943 | 31211 ft | 436 kts | 84° |
| 2026-04-28 20:45 | 39.63802 | 34.50867 | 31508 ft | 438 kts | 83° |
| 2026-04-28 20:45 | 39.64184 | 34.54817 | 31695 ft | 444 kts | 83° |
| 2026-04-28 20:45 | 39.64560 | 34.58823 | 31869 ft | 449 kts | 84° |
| 2026-04-28 20:45 | 39.64915 | 34.62867 | 32082 ft | 453 kts | 84° |
| 2026-04-28 20:46 | 39.65249 | 34.66951 | 32327 ft | 456 kts | 85° |
| 2026-04-28 20:46 | 39.65579 | 34.71059 | 32537 ft | 460 kts | 84° |
| 2026-04-28 20:46 | 39.65940 | 34.75197 | 32702 ft | 464 kts | 84° |
| 2026-04-28 20:46 | 39.66333 | 34.79363 | 32912 ft | 466 kts | 83° |
| 2026-04-28 20:47 | 39.66729 | 34.83533 | 33394 ft | 457 kts | 84° |
| 2026-04-28 20:47 | 39.67102 | 34.87540 | 34537 ft | 437 kts | 84° |
| 2026-04-28 20:47 | 39.67456 | 34.91402 | 35115 ft | 432 kts | 84° |
| 2026-04-28 20:48 | 39.68146 | 34.99260 | 35283 ft | 442 kts | 84° |
| 2026-04-28 20:48 | 39.68481 | 35.03243 | 35429 ft | 445 kts | 85° |
| 2026-04-28 20:48 | 39.68810 | 35.07248 | 35746 ft | 440 kts | 85° |
| 2026-04-28 20:48 | 39.69122 | 35.11102 | 36733 ft | 420 kts | 85° |
| 2026-04-28 20:49 | 39.69426 | 35.14878 | 36883 ft | 425 kts | 85° |
| 2026-04-28 20:49 | 39.70065 | 35.22585 | 37070 ft | 431 kts | 84° |
| 2026-04-28 20:49 | 39.70399 | 35.26453 | 37231 ft | 433 kts | 84° |
| 2026-04-28 20:50 | 39.70748 | 35.30381 | 37052 ft | 443 kts | 84° |
| 2026-04-28 20:50 | 39.71491 | 35.38406 | 37141 ft | 451 kts | 84° |
| 2026-04-28 20:51 | 39.72247 | 35.46551 | 37067 ft | 462 kts | 84° |
| 2026-04-28 20:51 | 39.72592 | 35.50710 | 37168 ft | 464 kts | 85° |
| 2026-04-28 20:51 | 39.72904 | 35.54881 | 37295 ft | 465 kts | 86° |
| 2026-04-28 20:51 | 39.73098 | 35.57710 | 37399 ft | 465 kts | 86° |
| 2026-04-28 20:52 | 39.73434 | 35.63253 | 37615 ft | 464 kts | 87° |
| 2026-04-28 20:52 | 39.74037 | 35.71648 | 37417 ft | 468 kts | 84° |
| 2026-04-28 20:53 | 39.75233 | 35.84226 | 37139 ft | 466 kts | 84° |
| 2026-04-28 20:53 | 39.75940 | 35.92598 | 37084 ft | 467 kts | 85° |
| 2026-04-28 20:54 | 39.76581 | 36.01009 | 37082 ft | 467 kts | 85° |
| 2026-04-28 20:54 | 39.77218 | 36.09421 | 37082 ft | 468 kts | 85° |
| 2026-04-28 20:55 | 39.77857 | 36.17828 | 37085 ft | 468 kts | 85° |
| 2026-04-28 20:55 | 39.78457 | 36.26185 | 37089 ft | 467 kts | 88° |
| 2026-04-28 20:56 | 39.78660 | 36.34618 | 37094 ft | 466 kts | 91° |
| 2026-04-28 20:56 | 39.78622 | 36.43039 | 37104 ft | 465 kts | 92° |
| 2026-04-28 20:57 | 39.78624 | 36.51464 | 37102 ft | 465 kts | 91° |
| 2026-04-28 20:57 | 39.78700 | 36.59878 | 37102 ft | 466 kts | 91° |
| 2026-04-28 20:58 | 39.78795 | 36.68362 | 37111 ft | 473 kts | 91° |
| 2026-04-28 20:58 | 39.78871 | 36.76959 | 37108 ft | 477 kts | 91° |
| 2026-04-28 20:59 | 39.78975 | 36.85615 | 37106 ft | 480 kts | 86° |
| 2026-04-28 20:59 | 39.80487 | 36.94067 | 37111 ft | 483 kts | 68° |
| 2026-04-28 21:00 | 39.83122 | 37.02105 | 37108 ft | 483 kts | 67° |
| 2026-04-28 21:00 | 39.85744 | 37.10159 | 37111 ft | 483 kts | 68° |
| 2026-04-28 21:01 | 39.88351 | 37.18218 | 37108 ft | 483 kts | 68° |
| 2026-04-28 21:01 | 39.90938 | 37.26255 | 37113 ft | 483 kts | 68° |
| 2026-04-28 21:02 | 39.93541 | 37.34340 | 37113 ft | 485 kts | 68° |
| 2026-04-28 21:02 | 39.95733 | 37.41134 | 37109 ft | 485 kts | 68° |
| 2026-04-28 21:03 | 39.98344 | 37.49250 | 37110 ft | 486 kts | 68° |
| 2026-04-28 21:03 | 40.00930 | 37.57322 | 37119 ft | 486 kts | 68° |
| 2026-04-28 21:04 | 40.03525 | 37.65481 | 37112 ft | 486 kts | 68° |
| 2026-04-28 21:04 | 40.06113 | 37.73640 | 37121 ft | 487 kts | 68° |
| 2026-04-28 21:05 | 40.08701 | 37.81811 | 37122 ft | 487 kts | 68° |
| 2026-04-28 21:05 | 40.11284 | 37.89976 | 37119 ft | 487 kts | 68° |
| 2026-04-28 21:06 | 40.13862 | 37.98158 | 37128 ft | 486 kts | 68° |
| 2026-04-28 21:06 | 40.16435 | 38.06349 | 37128 ft | 487 kts | 69° |
| 2026-04-28 21:07 | 40.19002 | 38.14536 | 37128 ft | 487 kts | 69° |
| 2026-04-28 21:07 | 40.21559 | 38.22727 | 37127 ft | 487 kts | 69° |
| 2026-04-28 21:08 | 40.24092 | 38.30872 | 37128 ft | 486 kts | 69° |
| 2026-04-28 21:08 | 40.26637 | 38.39076 | 37127 ft | 487 kts | 69° |
| 2026-04-28 21:09 | 40.29182 | 38.47309 | 37126 ft | 487 kts | 69° |
| 2026-04-28 21:09 | 40.31721 | 38.55533 | 37129 ft | 487 kts | 69° |
| 2026-04-28 21:10 | 40.34257 | 38.63761 | 37124 ft | 487 kts | 69° |
| 2026-04-28 21:10 | 40.36777 | 38.72004 | 37117 ft | 487 kts | 69° |
| 2026-04-28 21:11 | 40.39304 | 38.80259 | 37117 ft | 487 kts | 69° |
| 2026-04-28 21:11 | 40.41825 | 38.88517 | 37118 ft | 488 kts | 69° |
| 2026-04-28 21:12 | 40.44334 | 38.96790 | 37117 ft | 488 kts | 70° |
| 2026-04-28 21:12 | 40.46838 | 39.05077 | 37117 ft | 488 kts | 70° |
| 2026-04-28 21:13 | 40.49322 | 39.13313 | 37117 ft | 488 kts | 70° |
| 2026-04-28 21:13 | 40.51826 | 39.21623 | 37121 ft | 488 kts | 70° |
| 2026-04-28 21:14 | 40.54324 | 39.29931 | 37128 ft | 488 kts | 70° |
| 2026-04-28 21:14 | 40.56807 | 39.38259 | 37129 ft | 489 kts | 70° |
| 2026-04-28 21:15 | 40.59269 | 39.46522 | 37552 ft | 466 kts | 70° |
| 2026-04-28 21:15 | 40.61673 | 39.54580 | 37370 ft | 482 kts | 70° |
| 2026-04-28 21:16 | 40.62895 | 39.58710 | 37126 ft | 486 kts | 70° |
| 2026-04-28 21:16 | 40.64117 | 39.62860 | 37138 ft | 486 kts | 70° |
| 2026-04-28 21:16 | 40.66565 | 39.71189 | 37146 ft | 488 kts | 70° |
| 2026-04-28 21:17 | 40.69021 | 39.79529 | 37147 ft | 488 kts | 71° |
| 2026-04-28 21:17 | 40.71455 | 39.87823 | 37147 ft | 488 kts | 71° |
| 2026-04-28 21:18 | 40.73909 | 39.96188 | 37145 ft | 489 kts | 71° |
| 2026-04-28 21:18 | 40.76270 | 40.04497 | 37379 ft | 479 kts | 72° |
| 2026-04-28 21:19 | 40.77454 | 40.08644 | 37161 ft | 486 kts | 71° |
| 2026-04-28 21:19 | 40.78679 | 40.12802 | 37143 ft | 488 kts | 70° |
| 2026-04-28 21:19 | 40.81163 | 40.21159 | 37138 ft | 489 kts | 70° |
| 2026-04-28 21:20 | 40.83604 | 40.29550 | 37136 ft | 490 kts | 71° |
| 2026-04-28 21:20 | 40.86025 | 40.37967 | 37135 ft | 491 kts | 71° |
| 2026-04-28 21:21 | 40.88437 | 40.46405 | 37140 ft | 491 kts | 71° |
| 2026-04-28 21:21 | 40.90851 | 40.54847 | 37135 ft | 491 kts | 71° |
| 2026-04-28 21:22 | 40.93258 | 40.63308 | 37136 ft | 492 kts | 71° |
| 2026-04-28 21:22 | 40.95261 | 40.70358 | 37137 ft | 492 kts | 71° |
| 2026-04-28 21:23 | 40.98049 | 40.80220 | 37139 ft | 492 kts | 71° |
| 2026-04-28 21:23 | 41.00440 | 40.88679 | 37133 ft | 485 kts | 71° |
| 2026-04-28 21:24 | 41.02796 | 40.97013 | 37137 ft | 481 kts | 71° |
| 2026-04-28 21:24 | 41.05117 | 41.05314 | 37138 ft | 480 kts | 72° |
| 2026-04-28 21:25 | 41.07435 | 41.13611 | 37138 ft | 480 kts | 71° |
| 2026-04-28 21:25 | 41.09749 | 41.21922 | 37138 ft | 480 kts | 71° |
| 2026-04-28 21:26 | 41.12048 | 41.30187 | 37138 ft | 481 kts | 72° |
| 2026-04-28 21:26 | 41.14353 | 41.38523 | 37139 ft | 481 kts | 72° |
| 2026-04-28 21:27 | 41.16653 | 41.46864 | 37127 ft | 481 kts | 72° |
| 2026-04-28 21:27 | 41.18948 | 41.55220 | 37128 ft | 482 kts | 72° |
| 2026-04-28 21:28 | 41.21236 | 41.63592 | 37137 ft | 483 kts | 72° |
| 2026-04-28 21:28 | 41.23527 | 41.71968 | 37139 ft | 483 kts | 72° |
| 2026-04-28 21:29 | 41.25812 | 41.80357 | 37138 ft | 483 kts | 72° |
| 2026-04-28 21:29 | 41.28092 | 41.88763 | 37134 ft | 483 kts | 72° |
| 2026-04-28 21:30 | 41.30194 | 41.97234 | 37136 ft | 480 kts | 81° |
| 2026-04-28 21:30 | 41.30781 | 42.01548 | 37135 ft | 467 kts | 83° |
| 2026-04-28 21:30 | 41.31319 | 42.05735 | 37126 ft | 451 kts | 83° |
| 2026-04-28 21:31 | 41.31842 | 42.09779 | 37127 ft | 438 kts | 83° |
| 2026-04-28 21:31 | 41.32353 | 42.13744 | 37128 ft | 432 kts | 83° |
| 2026-04-28 21:31 | 41.33355 | 42.21601 | 37127 ft | 430 kts | 84° |
| 2026-04-28 21:32 | 41.34347 | 42.29453 | 37126 ft | 429 kts | 84° |
| 2026-04-28 21:32 | 41.35335 | 42.37296 | 37128 ft | 429 kts | 84° |
| 2026-04-28 21:33 | 41.36320 | 42.45140 | 37128 ft | 430 kts | 84° |
| 2026-04-28 21:33 | 41.37297 | 42.52990 | 37122 ft | 430 kts | 84° |
| 2026-04-28 21:34 | 41.38276 | 42.60830 | 37119 ft | 430 kts | 84° |
| 2026-04-28 21:34 | 41.39245 | 42.68632 | 37119 ft | 430 kts | 84° |
| 2026-04-28 21:35 | 41.40207 | 42.76483 | 37117 ft | 430 kts | 84° |
| 2026-04-28 21:35 | 41.41167 | 42.84342 | 37118 ft | 429 kts | 84° |
| 2026-04-28 21:36 | 41.42122 | 42.92193 | 37118 ft | 429 kts | 84° |
| 2026-04-28 21:36 | 41.43073 | 43.00052 | 37112 ft | 430 kts | 84° |
| 2026-04-28 21:37 | 41.44013 | 43.07916 | 37105 ft | 430 kts | 84° |
| 2026-04-28 21:37 | 41.44951 | 43.15787 | 37107 ft | 430 kts | 84° |
| 2026-04-28 21:38 | 41.45885 | 43.23654 | 37047 ft | 430 kts | 84° |
| 2026-04-28 21:38 | 41.46354 | 43.27642 | 36795 ft | 442 kts | 84° |
| 2026-04-28 21:38 | 41.46830 | 43.31751 | 36546 ft | 454 kts | 84° |
| 2026-04-28 21:39 | 41.47316 | 43.35968 | 35940 ft | 464 kts | 84° |
| 2026-04-28 21:39 | 41.47810 | 43.40207 | 35039 ft | 460 kts | 84° |
| 2026-04-28 21:39 | 41.48306 | 43.44409 | 34138 ft | 457 kts | 84° |
| 2026-04-28 21:39 | 41.48804 | 43.48642 | 33238 ft | 465 kts | 84° |
| 2026-04-28 21:40 | 41.49308 | 43.52947 | 32187 ft | 474 kts | 84° |
| 2026-04-28 21:40 | 41.49810 | 43.57271 | 31107 ft | 482 kts | 84° |
| 2026-04-28 21:40 | 41.50323 | 43.61709 | 30026 ft | 487 kts | 83° |
| 2026-04-28 21:40 | 41.50837 | 43.66207 | 28767 ft | 494 kts | 83° |
| 2026-04-28 21:41 | 41.51350 | 43.70723 | 27500 ft | 487 kts | 83° |
| 2026-04-28 21:41 | 41.51860 | 43.75197 | 26232 ft | 490 kts | 83° |
| 2026-04-28 21:41 | 41.52370 | 43.79702 | 24913 ft | 488 kts | 83° |
| 2026-04-28 21:41 | 41.52866 | 43.84120 | 23627 ft | 476 kts | 83° |
| 2026-04-28 21:42 | 41.53356 | 43.88496 | 22432 ft | 478 kts | 83° |
| 2026-04-28 21:42 | 41.53843 | 43.92858 | 21526 ft | 472 kts | 83° |
| 2026-04-28 21:42 | 41.54326 | 43.97172 | 20606 ft | 467 kts | 82° |
| 2026-04-28 21:42 | 41.54798 | 44.01365 | 19725 ft | 445 kts | 83° |
| 2026-04-28 21:43 | 41.55246 | 44.05360 | 18900 ft | 426 kts | 83° |
| 2026-04-28 21:43 | 41.55674 | 44.09221 | 18108 ft | 418 kts | 83° |
| 2026-04-28 21:43 | 41.56095 | 44.13045 | 17338 ft | 413 kts | 83° |
| 2026-04-28 21:43 | 41.56629 | 44.16787 | 16598 ft | 409 kts | 75° |
| 2026-04-28 21:44 | 41.57642 | 44.20324 | 15884 ft | 409 kts | 64° |
| 2026-04-28 21:44 | 41.59138 | 44.23542 | 15231 ft | 408 kts | 53° |
| 2026-04-28 21:44 | 41.61042 | 44.26317 | 14648 ft | 404 kts | 43° |
| 2026-04-28 21:44 | 41.63266 | 44.28606 | 13978 ft | 403 kts | 34° |
| 2026-04-28 21:45 | 41.65572 | 44.30677 | 13296 ft | 394 kts | 34° |
| 2026-04-28 21:45 | 41.67826 | 44.32713 | 12664 ft | 389 kts | 34° |
| 2026-04-28 21:45 | 41.70054 | 44.34736 | 11986 ft | 385 kts | 34° |
| 2026-04-28 21:45 | 41.72247 | 44.36731 | 11316 ft | 377 kts | 34° |
| 2026-04-28 21:46 | 41.74373 | 44.38666 | 11130 ft | 361 kts | 34° |
| 2026-04-28 21:46 | 41.76401 | 44.40516 | 10992 ft | 345 kts | 34° |
| 2026-04-28 21:46 | 41.78314 | 44.42263 | 10865 ft | 330 kts | 34° |
| 2026-04-28 21:46 | 41.80174 | 44.43958 | 10736 ft | 317 kts | 34° |
| 2026-04-28 21:47 | 41.81964 | 44.45585 | 10609 ft | 305 kts | 34° |
| 2026-04-28 21:47 | 41.83648 | 44.47222 | 10350 ft | 294 kts | 41° |
| 2026-04-28 21:47 | 41.85086 | 44.49139 | 10096 ft | 291 kts | 47° |
| 2026-04-28 21:47 | 41.86480 | 44.51102 | 9881 ft | 290 kts | 46° |
| 2026-04-28 21:48 | 41.87873 | 44.53049 | 9766 ft | 289 kts | 46° |
| 2026-04-28 21:48 | 41.89244 | 44.54961 | 9637 ft | 274 kts | 46° |
| 2026-04-28 21:48 | 41.90512 | 44.56736 | 9504 ft | 253 kts | 47° |
| 2026-04-28 21:48 | 41.91501 | 44.58624 | 9198 ft | 245 kts | 68° |
| 2026-04-28 21:49 | 41.91862 | 44.60814 | 8756 ft | 239 kts | 91° |
| 2026-04-28 21:49 | 41.91575 | 44.62993 | 8276 ft | 238 kts | 112° |
| 2026-04-28 21:49 | 41.91055 | 44.64299 | 7938 ft | 242 kts | 126° |
| 2026-04-28 21:49 | 41.89487 | 44.66402 | 7697 ft | 231 kts | 137° |
| 2026-04-28 21:50 | 41.88725 | 44.67364 | 7656 ft | 223 kts | 136° |
| 2026-04-28 21:50 | 41.87623 | 44.68770 | 7688 ft | 215 kts | 136° |
| 2026-04-28 21:50 | 41.86506 | 44.70190 | 8543 ft | 238 kts | 136° |
| 2026-04-28 21:50 | 41.85165 | 44.71891 | 8117 ft | 282 kts | 136° |
| 2026-04-28 21:51 | 41.83774 | 44.73697 | 7890 ft | 271 kts | 136° |
| 2026-04-28 21:51 | 41.82476 | 44.75375 | 7703 ft | 250 kts | 136° |
| 2026-04-28 21:51 | 41.81256 | 44.76951 | 7627 ft | 237 kts | 136° |
| 2026-04-28 21:51 | 41.80074 | 44.78420 | 7489 ft | 228 kts | 138° |
| 2026-04-28 21:52 | 41.78899 | 44.79838 | 7197 ft | 227 kts | 138° |
| 2026-04-28 21:52 | 41.77711 | 44.81254 | 6891 ft | 232 kts | 139° |
| 2026-04-28 21:52 | 41.76485 | 44.82715 | 6950 ft | 240 kts | 138° |
| 2026-04-28 21:52 | 41.75239 | 44.84212 | 6954 ft | 241 kts | 138° |
| 2026-04-28 21:53 | 41.73989 | 44.85719 | 6991 ft | 242 kts | 138° |
| 2026-04-28 21:53 | 41.72731 | 44.87219 | 7000 ft | 242 kts | 139° |
| 2026-04-28 21:53 | 41.71471 | 44.88714 | 7022 ft | 242 kts | 139° |
| 2026-04-28 21:53 | 41.70207 | 44.90209 | 7017 ft | 243 kts | 139° |
| 2026-04-28 21:54 | 41.68937 | 44.91698 | 6961 ft | 242 kts | 139° |
| 2026-04-28 21:54 | 41.67688 | 44.93193 | 6920 ft | 237 kts | 137° |
| 2026-04-28 21:54 | 41.66496 | 44.94643 | 6939 ft | 229 kts | 139° |
| 2026-04-28 21:54 | 41.65215 | 44.95915 | 7017 ft | 230 kts | 153° |
| 2026-04-28 21:55 | 41.63683 | 44.96435 | 7022 ft | 229 kts | 172° |
| 2026-04-28 21:55 | 41.62183 | 44.97080 | 7015 ft | 229 kts | 147° |
| 2026-04-28 21:55 | 41.60912 | 44.98367 | 7011 ft | 229 kts | 140° |
| 2026-04-28 21:55 | 41.59618 | 44.99583 | 6998 ft | 228 kts | 159° |
| 2026-04-28 21:56 | 41.58066 | 44.99802 | 7010 ft | 228 kts | 191° |
| 2026-04-28 21:56 | 41.56668 | 44.98849 | 7012 ft | 229 kts | 225° |
| 2026-04-28 21:56 | 41.55880 | 44.97021 | 7012 ft | 231 kts | 257° |
| 2026-04-28 21:56 | 41.55958 | 44.94899 | 7003 ft | 233 kts | 290° |
| 2026-04-28 21:57 | 41.56888 | 44.93162 | 7011 ft | 233 kts | 323° |
| 2026-04-28 21:57 | 41.58368 | 44.92371 | 7009 ft | 232 kts | 356° |
| 2026-04-28 21:57 | 41.59956 | 44.92497 | 7017 ft | 232 kts | 9° |
| 2026-04-28 21:57 | 41.61543 | 44.92904 | 7010 ft | 232 kts | 13° |
| 2026-04-28 21:58 | 41.63114 | 44.93402 | 7011 ft | 232 kts | 14° |
| 2026-04-28 21:58 | 41.64683 | 44.93917 | 7005 ft | 232 kts | 14° |
| 2026-04-28 21:58 | 41.66247 | 44.94441 | 7014 ft | 232 kts | 14° |
| 2026-04-28 21:58 | 41.67819 | 44.94968 | 7014 ft | 232 kts | 14° |
| 2026-04-28 21:59 | 41.69378 | 44.95491 | 7180 ft | 231 kts | 14° |
| 2026-04-28 21:59 | 41.70994 | 44.95627 | 7758 ft | 236 kts | 349° |
| 2026-04-28 21:59 | 41.72532 | 44.94822 | 8464 ft | 242 kts | 332° |
| 2026-04-28 22:00 | 41.75459 | 44.92632 | 9066 ft | 241 kts | 330° |
| 2026-04-28 22:00 | 41.76916 | 44.91512 | 9388 ft | 242 kts | 330° |
| 2026-04-28 22:00 | 41.78379 | 44.90388 | 9709 ft | 243 kts | 330° |
| 2026-04-28 22:00 | 41.79850 | 44.89260 | 10033 ft | 244 kts | 330° |
| 2026-04-28 22:01 | 41.81332 | 44.88130 | 10359 ft | 246 kts | 330° |
| 2026-04-28 22:01 | 41.82822 | 44.86995 | 10684 ft | 247 kts | 330° |
| 2026-04-28 22:01 | 41.84323 | 44.85849 | 10958 ft | 250 kts | 330° |
| 2026-04-28 22:01 | 41.85844 | 44.84689 | 11010 ft | 252 kts | 330° |
| 2026-04-28 22:02 | 41.87370 | 44.83525 | 11009 ft | 252 kts | 330° |
| 2026-04-28 22:02 | 41.88892 | 44.82363 | 11009 ft | 252 kts | 330° |
| 2026-04-28 22:02 | 41.90416 | 44.81198 | 11009 ft | 252 kts | 330° |
| 2026-04-28 22:02 | 41.91939 | 44.80032 | 11010 ft | 252 kts | 330° |
| 2026-04-28 22:03 | 41.93456 | 44.78847 | 11009 ft | 252 kts | 325° |
| 2026-04-28 22:03 | 41.94647 | 44.77159 | 11012 ft | 251 kts | 298° |
| 2026-04-28 22:03 | 41.95147 | 44.74942 | 11010 ft | 249 kts | 271° |
| 2026-04-28 22:03 | 41.94981 | 44.72633 | 11012 ft | 250 kts | 261° |
| 2026-04-28 22:04 | 41.94714 | 44.70329 | 11003 ft | 250 kts | 260° |
| 2026-04-28 22:04 | 41.94445 | 44.68025 | 11000 ft | 250 kts | 261° |
| 2026-04-28 22:04 | 41.94182 | 44.65750 | 11000 ft | 250 kts | 261° |
| 2026-04-28 22:04 | 41.93916 | 44.63443 | 11000 ft | 250 kts | 261° |
| 2026-04-28 22:05 | 41.93647 | 44.61142 | 11000 ft | 250 kts | 258° |
| 2026-04-28 22:05 | 41.92960 | 44.59039 | 11001 ft | 248 kts | 229° |
| 2026-04-28 22:05 | 41.91620 | 44.57618 | 11002 ft | 247 kts | 210° |
| 2026-04-28 22:05 | 41.90160 | 44.56392 | 11001 ft | 248 kts | 212° |
| 2026-04-28 22:06 | 41.88826 | 44.54942 | 10989 ft | 248 kts | 232° |
| 2026-04-28 22:06 | 41.88108 | 44.52860 | 11000 ft | 248 kts | 260° |
| 2026-04-28 22:06 | 41.88180 | 44.50564 | 11000 ft | 249 kts | 287° |
| 2026-04-28 22:06 | 41.89029 | 44.48558 | 11000 ft | 250 kts | 315° |
| 2026-04-28 22:07 | 41.90476 | 44.47314 | 11000 ft | 250 kts | 343° |
| 2026-04-28 22:07 | 41.92191 | 44.47136 | 11000 ft | 249 kts | 12° |
| 2026-04-28 22:07 | 41.93768 | 44.48047 | 10995 ft | 249 kts | 39° |
| 2026-04-28 22:07 | 41.94840 | 44.49832 | 10985 ft | 248 kts | 67° |
| 2026-04-28 22:08 | 41.95173 | 44.52079 | 10992 ft | 247 kts | 95° |
| 2026-04-28 22:08 | 41.94872 | 44.54375 | 11001 ft | 252 kts | 103° |
| 2026-04-28 22:08 | 41.94475 | 44.56678 | 11001 ft | 253 kts | 104° |
| 2026-04-28 22:08 | 41.94063 | 44.58958 | 10999 ft | 249 kts | 104° |
| 2026-04-28 22:09 | 41.93647 | 44.61214 | 10999 ft | 248 kts | 107° |
| 2026-04-28 22:09 | 41.92835 | 44.63226 | 10998 ft | 247 kts | 134° |
| 2026-04-28 22:09 | 41.91428 | 44.64499 | 11000 ft | 246 kts | 162° |
| 2026-04-28 22:09 | 41.89767 | 44.64754 | 11000 ft | 246 kts | 189° |
| 2026-04-28 22:10 | 41.88184 | 44.63935 | 11000 ft | 247 kts | 217° |
| 2026-04-28 22:10 | 41.87063 | 44.62218 | 11000 ft | 248 kts | 244° |
| 2026-04-28 22:10 | 41.86665 | 44.59990 | 11000 ft | 248 kts | 272° |
| 2026-04-28 22:10 | 41.86952 | 44.57705 | 11003 ft | 250 kts | 283° |
| 2026-04-28 22:11 | 41.87349 | 44.55433 | 11001 ft | 250 kts | 283° |
| 2026-04-28 22:11 | 41.87758 | 44.53164 | 11000 ft | 250 kts | 283° |
| 2026-04-28 22:11 | 41.88166 | 44.50896 | 11001 ft | 250 kts | 283° |
| 2026-04-28 22:11 | 41.88707 | 44.48686 | 10990 ft | 250 kts | 301° |
| 2026-04-28 22:12 | 41.89886 | 44.47006 | 11000 ft | 250 kts | 329° |
| 2026-04-28 22:12 | 41.91518 | 44.46267 | 10989 ft | 250 kts | 358° |
| 2026-04-28 22:12 | 41.93211 | 44.46651 | 10992 ft | 249 kts | 26° |
| 2026-04-28 22:12 | 41.94566 | 44.48051 | 10989 ft | 248 kts | 54° |
| 2026-04-28 22:13 | 41.95269 | 44.50136 | 10992 ft | 247 kts | 82° |
| 2026-04-28 22:13 | 41.95190 | 44.52424 | 11002 ft | 247 kts | 102° |
| 2026-04-28 22:13 | 41.94815 | 44.54680 | 11001 ft | 248 kts | 104° |
| 2026-04-28 22:13 | 41.94412 | 44.56932 | 11000 ft | 248 kts | 104° |
| 2026-04-28 22:14 | 41.94003 | 44.59184 | 11000 ft | 248 kts | 104° |
| 2026-04-28 22:14 | 41.93585 | 44.61430 | 10999 ft | 248 kts | 109° |
| 2026-04-28 22:14 | 41.92712 | 44.63390 | 11000 ft | 246 kts | 137° |
| 2026-04-28 22:14 | 41.91259 | 44.64571 | 11000 ft | 246 kts | 165° |
| 2026-04-28 22:15 | 41.89590 | 44.64706 | 11000 ft | 246 kts | 192° |
| 2026-04-28 22:15 | 41.88045 | 44.63766 | 11000 ft | 247 kts | 220° |
| 2026-04-28 22:15 | 41.87001 | 44.61963 | 11000 ft | 248 kts | 248° |
| 2026-04-28 22:15 | 41.86708 | 44.59705 | 11000 ft | 248 kts | 276° |
| 2026-04-28 22:16 | 41.87036 | 44.57426 | 11002 ft | 250 kts | 283° |
| 2026-04-28 22:16 | 41.87431 | 44.55156 | 11001 ft | 250 kts | 283° |
| 2026-04-28 22:16 | 41.87837 | 44.52887 | 11000 ft | 250 kts | 283° |
| 2026-04-28 22:16 | 41.88245 | 44.50614 | 11000 ft | 250 kts | 283° |
| 2026-04-28 22:17 | 41.88841 | 44.48436 | 10861 ft | 248 kts | 304° |
| 2026-04-28 22:17 | 41.90079 | 44.46874 | 10531 ft | 246 kts | 333° |
| 2026-04-28 22:17 | 41.91710 | 44.46280 | 10187 ft | 244 kts | 1° |
| 2026-04-28 22:17 | 41.93349 | 44.46764 | 9842 ft | 242 kts | 29° |
| 2026-04-28 22:18 | 41.94641 | 44.48156 | 9498 ft | 239 kts | 53° |
| 2026-04-28 22:18 | 41.95311 | 44.50156 | 9150 ft | 236 kts | 84° |
| 2026-04-28 22:18 | 41.95094 | 44.52273 | 8792 ft | 234 kts | 116° |
| 2026-04-28 22:18 | 41.94181 | 44.54075 | 8422 ft | 234 kts | 130° |
| 2026-04-28 22:19 | 41.93109 | 44.55729 | 8067 ft | 234 kts | 131° |
| 2026-04-28 22:19 | 41.92021 | 44.57355 | 7733 ft | 233 kts | 132° |
| 2026-04-28 22:19 | 41.90934 | 44.58967 | 7406 ft | 232 kts | 132° |
| 2026-04-28 22:19 | 41.89851 | 44.60570 | 7078 ft | 231 kts | 132° |
| 2026-04-28 22:20 | 41.88779 | 44.62157 | 6992 ft | 229 kts | 132° |
| 2026-04-28 22:20 | 41.87701 | 44.63748 | 6994 ft | 231 kts | 132° |
| 2026-04-28 22:20 | 41.86601 | 44.65373 | 7007 ft | 240 kts | 132° |
| 2026-04-28 22:20 | 41.85473 | 44.67040 | 7013 ft | 242 kts | 132° |
| 2026-04-28 22:21 | 41.84341 | 44.68712 | 7006 ft | 242 kts | 132° |
| 2026-04-28 22:21 | 41.83205 | 44.70389 | 7011 ft | 242 kts | 132° |
| 2026-04-28 22:21 | 41.82072 | 44.72060 | 7014 ft | 242 kts | 132° |
| 2026-04-28 22:21 | 41.80939 | 44.73732 | 7001 ft | 242 kts | 132° |
| 2026-04-28 22:22 | 41.79805 | 44.75406 | 7013 ft | 242 kts | 132° |
| 2026-04-28 22:22 | 41.78672 | 44.77078 | 7011 ft | 242 kts | 132° |
| 2026-04-28 22:22 | 41.77537 | 44.78753 | 7012 ft | 242 kts | 132° |
| 2026-04-28 22:22 | 41.76420 | 44.80403 | 7008 ft | 242 kts | 132° |
| 2026-04-28 22:23 | 41.75286 | 44.82076 | 7008 ft | 243 kts | 132° |
| 2026-04-28 22:23 | 41.74152 | 44.83750 | 7015 ft | 242 kts | 132° |
| 2026-04-28 22:23 | 41.73017 | 44.85422 | 7008 ft | 243 kts | 132° |
| 2026-04-28 22:23 | 41.71882 | 44.87096 | 7010 ft | 243 kts | 132° |
| 2026-04-28 22:24 | 41.70749 | 44.88767 | 7008 ft | 242 kts | 132° |
| 2026-04-28 22:24 | 41.69615 | 44.90441 | 7015 ft | 242 kts | 132° |
| 2026-04-28 22:24 | 41.68481 | 44.92113 | 7009 ft | 243 kts | 132° |
| 2026-04-28 22:24 | 41.67356 | 44.93795 | 7010 ft | 243 kts | 128° |
| 2026-04-28 22:25 | 41.66676 | 44.95824 | 7012 ft | 242 kts | 97° |
| 2026-04-28 22:25 | 41.66620 | 44.98074 | 7014 ft | 243 kts | 89° |
| 2026-04-28 22:25 | 41.66453 | 45.00305 | 6997 ft | 242 kts | 111° |
| 2026-04-28 22:25 | 41.65504 | 45.02119 | 7009 ft | 240 kts | 142° |
| 2026-04-28 22:26 | 41.63990 | 45.02998 | 7005 ft | 241 kts | 174° |
| 2026-04-28 22:26 | 41.62353 | 45.02684 | 7009 ft | 241 kts | 205° |
| 2026-04-28 22:26 | 41.61077 | 45.01266 | 7009 ft | 242 kts | 237° |
| 2026-04-28 22:26 | 41.60537 | 44.99153 | 7008 ft | 244 kts | 268° |
| 2026-04-28 22:27 | 41.60898 | 44.96956 | 7012 ft | 245 kts | 299° |
| 2026-04-28 22:27 | 41.62054 | 44.95321 | 7010 ft | 245 kts | 331° |
| 2026-04-28 22:27 | 41.63673 | 44.94675 | 7014 ft | 245 kts | 355° |
| 2026-04-28 22:27 | 41.65376 | 44.94574 | 7000 ft | 246 kts | 1° |
| 2026-04-28 22:28 | 41.67091 | 44.94610 | 7005 ft | 246 kts | 356° |
| 2026-04-28 22:28 | 41.68693 | 44.93900 | 7014 ft | 246 kts | 324° |
| 2026-04-28 22:28 | 41.69796 | 44.92194 | 7010 ft | 245 kts | 293° |
| 2026-04-28 22:28 | 41.70230 | 44.89998 | 7010 ft | 245 kts | 279° |
| 2026-04-28 22:29 | 41.70680 | 44.87798 | 7006 ft | 246 kts | 296° |
| 2026-04-28 22:29 | 41.71513 | 44.85879 | 7006 ft | 235 kts | 302° |
| 2026-04-28 22:29 | 41.72329 | 44.84070 | 7000 ft | 220 kts | 300° |
| 2026-04-28 22:29 | 41.73068 | 44.82379 | 7042 ft | 200 kts | 301° |
| 2026-04-28 22:30 | 41.73760 | 44.80855 | 7015 ft | 185 kts | 302° |
| 2026-04-28 22:30 | 41.74446 | 44.79432 | 6999 ft | 181 kts | 303° |
| 2026-04-28 22:30 | 41.75136 | 44.78021 | 6999 ft | 181 kts | 303° |
| 2026-04-28 22:30 | 41.75823 | 44.76616 | 7006 ft | 180 kts | 303° |
| 2026-04-28 22:31 | 41.76511 | 44.75211 | 7003 ft | 180 kts | 303° |
| 2026-04-28 22:31 | 41.77201 | 44.73802 | 7010 ft | 180 kts | 303° |
| 2026-04-28 22:31 | 41.77890 | 44.72394 | 7009 ft | 180 kts | 303° |
| 2026-04-28 22:31 | 41.78578 | 44.70989 | 7005 ft | 180 kts | 303° |
| 2026-04-28 22:32 | 41.79267 | 44.69583 | 7012 ft | 181 kts | 303° |
| 2026-04-28 22:32 | 41.79956 | 44.68177 | 7012 ft | 181 kts | 303° |
| 2026-04-28 22:32 | 41.80645 | 44.66769 | 7011 ft | 180 kts | 303° |
| 2026-04-28 22:32 | 41.81333 | 44.65364 | 7005 ft | 180 kts | 303° |
| 2026-04-28 22:33 | 41.82022 | 44.63957 | 7006 ft | 180 kts | 303° |
| 2026-04-28 22:33 | 41.82711 | 44.62552 | 7012 ft | 181 kts | 303° |
| 2026-04-28 22:33 | 41.83514 | 44.61274 | 6982 ft | 179 kts | 329° |
| 2026-04-28 22:33 | 41.84697 | 44.60929 | 6994 ft | 178 kts | 11° |
| 2026-04-28 22:34 | 41.85730 | 44.61723 | 7000 ft | 176 kts | 53° |
| 2026-04-28 22:34 | 41.86095 | 44.63249 | 7013 ft | 175 kts | 93° |
| 2026-04-28 22:34 | 41.85916 | 44.64868 | 7014 ft | 176 kts | 102° |
| 2026-04-28 22:34 | 41.85637 | 44.66456 | 6937 ft | 173 kts | 104° |
| 2026-04-28 22:35 | 41.85346 | 44.68010 | 6759 ft | 173 kts | 107° |
| 2026-04-28 22:35 | 41.84723 | 44.69376 | 6604 ft | 174 kts | 133° |
| 2026-04-28 22:35 | 41.83879 | 44.70547 | 6444 ft | 174 kts | 129° |
| 2026-04-28 22:35 | 41.83172 | 44.71807 | 6309 ft | 159 kts | 125° |
| 2026-04-28 22:36 | 41.82562 | 44.72994 | 6138 ft | 152 kts | 124° |
| 2026-04-28 22:36 | 41.81975 | 44.74151 | 5935 ft | 149 kts | 124° |
| 2026-04-28 22:36 | 41.81395 | 44.75301 | 5733 ft | 149 kts | 124° |
| 2026-04-28 22:36 | 41.80837 | 44.76465 | 5544 ft | 148 kts | 122° |
| 2026-04-28 22:37 | 41.80301 | 44.77641 | 5381 ft | 147 kts | 121° |
| 2026-04-28 22:37 | 41.79914 | 44.78386 | 5338 ft | 147 kts | 131° |
| 2026-04-28 22:37 | 41.79199 | 44.79372 | 5200 ft | 148 kts | 136° |
| 2026-04-28 22:37 | 41.78452 | 44.80314 | 4970 ft | 147 kts | 137° |
| 2026-04-28 22:38 | 41.77705 | 44.81243 | 4744 ft | 146 kts | 137° |
| 2026-04-28 22:38 | 41.76961 | 44.82167 | 4518 ft | 146 kts | 137° |
| 2026-04-28 22:38 | 41.76216 | 44.83093 | 4292 ft | 145 kts | 137° |
| 2026-04-28 22:38 | 41.75491 | 44.83990 | 4071 ft | 140 kts | 137° |
| 2026-04-28 22:39 | 41.74779 | 44.84866 | 3848 ft | 138 kts | 139° |
| 2026-04-28 22:39 | 41.74087 | 44.85750 | 3639 ft | 137 kts | 136° |
| 2026-04-28 22:39 | 41.73404 | 44.86632 | 3427 ft | 136 kts | 137° |
| 2026-04-28 22:39 | 41.72713 | 44.87493 | 3211 ft | 136 kts | 137° |
| 2026-04-28 22:40 | 41.72032 | 44.88339 | 3015 ft | 135 kts | 134° |
| 2026-04-28 22:40 | 41.71332 | 44.89192 | 2803 ft | 134 kts | 136° |
| 2026-04-28 22:40 | 41.70663 | 44.90020 | 2613 ft | 133 kts | 131° |
| 2026-04-28 22:40 | 41.70046 | 44.90948 | 2489 ft | 133 kts | 129° |
| 2026-04-28 22:41 | 41.69394 | 44.91901 | 2213 ft | 144 kts | 131° |
| 2026-04-28 22:41 | 41.68699 | 44.92809 | 2064 ft | 139 kts | 132° |
| 2026-04-28 22:41 | 41.68020 | 44.93710 | 1739 ft | 136 kts | 132° |
| 2026-04-28 22:41 | 41.67345 | 44.94566 | 1524 ft | 124 kts | 136° |
| 2026-04-28 22:42 | 41.66862 | 44.95179 | 1526 ft | 62 kts | 136° |
| 2026-04-28 22:42 | 41.66627 | 44.95474 | 1524 ft | 41 kts | 137° |
| 2026-04-28 22:42 | 41.66435 | 44.95716 | 1524 ft | 38 kts | 136° |
| 2026-04-28 22:42 | 41.66242 | 44.95962 | 1521 ft | 36 kts | 136° |
| 2026-04-28 22:43 | 41.66064 | 44.96179 | 1525 ft | 35 kts | 136° |
| 2026-04-28 22:43 | 41.65898 | 44.96389 | 1523 ft | 32 kts | 136° |
| 2026-04-28 22:43 | 41.65823 | 44.96528 | 1526 ft | 9 kts | 86° |
| 2026-04-28 22:43 | 41.65849 | 44.96564 | 1521 ft | 7 kts | 37° |
| 2026-04-28 22:44 | 41.65894 | 44.96597 | 1521 ft | 5 kts | 13° |
| 2026-04-28 22:44 | 41.65953 | 44.96574 | 1524 ft | 12 kts | 318° |
| 2026-04-28 22:44 | 41.66002 | 44.96515 | 1522 ft | 7 kts | 317° |
| 2026-04-28 22:44 | 41.66030 | 44.96480 | 1522 ft | 5 kts | 317° |
| 2026-04-28 22:45 | 41.66077 | 44.96421 | 1526 ft | 12 kts | 317° |
| 2026-04-28 22:45 | 41.66133 | 44.96350 | 1526 ft | 11 kts | 320° |
| 2026-04-28 22:45 | 41.66216 | 44.96303 | 1527 ft | 15 kts | 346° |
| 2026-04-28 22:45 | 41.66322 | 44.96313 | 1521 ft | 16 kts | 14° |
| 2026-04-28 22:46 | 41.66429 | 44.96348 | 1527 ft | 16 kts | 13° |
| 2026-04-28 22:46 | 41.66537 | 44.96383 | 1527 ft | 16 kts | 14° |
| 2026-04-28 22:46 | 41.66644 | 44.96416 | 1527 ft | 16 kts | 15° |
| 2026-04-28 22:46 | 41.66724 | 44.96418 | 1527 ft | 9 kts | 333° |
| 2026-04-28 22:47 | 41.66762 | 44.96373 | 1525 ft | 9 kts | 313° |
| 2026-04-28 22:47 | 41.66826 | 44.96285 | 1527 ft | 13 kts | 313° |
| 2026-04-28 22:47 | 41.66881 | 44.96205 | 1524 ft | 9 kts | 312° |
| 2026-04-28 22:47 | 41.66905 | 44.96168 | 1527 ft | 7 kts | 316° |
| 2026-04-28 22:48 | 41.66946 | 44.96177 | 1527 ft | 11 kts | 34° |
| 2026-04-28 22:48 | 41.66979 | 44.96217 | 1525 ft | 0 kts | 43° |